Time;durP1;ratioP1;P1;durP2;ratioP2;P2;SDS_P1;SDS_P2;PMS_P1;PMS_P2;Temp;Humidity;BMP_temperature;BMP_pressure;BME280_temperature;BME280_humidity;BME280_pressure;Samples;Min_cycle;Max_cycle;Signal;HPM_P1;HPM_P2
2021/07/16 00:00:30;;;;;;;7.18;5.30;;;;;;;17.46;78.39;101258.97;5110144;28;20063;-76
2021/07/16 00:03:16;;;;;;;8.27;5.18;;;;;;;17.40;78.38;101257.44;5094837;28;20118;-76
2021/07/16 00:06:02;;;;;;;12.90;6.57;;;;;;;17.38;79.01;101259.75;5109720;28;20095;-76
2021/07/16 00:08:47;;;;;;;9.63;5.97;;;;;;;17.37;79.40;101261.72;5093885;28;20122;-76
2021/07/16 00:11:34;;;;;;;8.73;6.10;;;;;;;17.36;79.88;101254.47;5112359;28;20043;-76
2021/07/16 00:14:19;;;;;;;9.25;6.38;;;;;;;17.35;80.06;101258.41;5093775;27;20039;-76
2021/07/16 00:17:05;;;;;;;8.52;5.15;;;;;;;17.35;79.38;101266.00;5112457;28;20119;-76
2021/07/16 00:19:51;;;;;;;8.02;5.85;;;;;;;17.36;80.29;101259.25;5096633;28;20067;-76
2021/07/16 00:22:37;;;;;;;9.27;5.88;;;;;;;17.39;79.93;101255.81;5109444;28;20064;-76
2021/07/16 00:25:23;;;;;;;8.02;5.97;;;;;;;17.36;79.88;101262.06;5094282;28;20097;-76
2021/07/16 00:28:09;;;;;;;11.90;6.70;;;;;;;17.36;79.90;101257.28;5102392;28;20027;-76
2021/07/16 00:30:54;;;;;;;9.10;6.50;;;;;;;17.40;80.11;101258.28;5108829;28;20059;-76
2021/07/16 00:33:40;;;;;;;12.07;6.80;;;;;;;17.38;80.55;101259.75;5112058;28;20119;-75
2021/07/16 00:36:26;;;;;;;10.55;7.03;;;;;;;17.40;80.07;101251.84;5113665;28;20062;-76
2021/07/16 00:39:12;;;;;;;9.13;6.40;;;;;;;17.40;80.65;101258.28;5095826;28;20031;-76
2021/07/16 00:41:57;;;;;;;9.82;6.75;;;;;;;17.37;80.11;101258.94;5073495;28;20036;-75
2021/07/16 00:44:43;;;;;;;10.32;7.53;;;;;;;17.39;81.16;101250.19;5113402;28;20067;-76
2021/07/16 00:47:29;;;;;;;10.32;7.43;;;;;;;17.42;80.68;101249.53;5085626;28;20039;-75
2021/07/16 00:50:18;;;;;;;10.93;7.45;;;;;;;17.41;80.47;101247.88;5109391;28;20077;-76
2021/07/16 00:53:04;;;;;;;10.02;7.68;;;;;;;17.44;81.32;101250.06;5104500;28;20035;-77
2021/07/16 00:55:50;;;;;;;11.48;7.95;;;;;;;17.46;81.39;101246.91;5098057;28;20032;-76
2021/07/16 00:58:36;;;;;;;10.98;7.10;;;;;;;17.45;80.82;101246.09;5083753;28;20092;-76
2021/07/16 01:01:22;;;;;;;11.52;6.82;;;;;;;17.47;80.45;101245.75;5091526;28;20024;-78
2021/07/16 01:04:08;;;;;;;12.13;8.20;;;;;;;17.49;80.91;101252.69;5095704;28;20035;-78
2021/07/16 01:06:54;;;;;;;11.15;7.90;;;;;;;17.50;81.11;101245.13;5082758;28;20035;-75
2021/07/16 01:09:40;;;;;;;10.90;7.90;;;;;;;17.50;80.38;101245.13;5090728;28;20464;-76
2021/07/16 01:12:26;;;;;;;14.77;8.55;;;;;;;17.50;80.76;101253.56;5107615;28;20059;-76
2021/07/16 01:15:15;;;;;;;11.02;7.60;;;;;;;17.51;80.49;101250.41;5107642;28;20027;-76
2021/07/16 01:18:01;;;;;;;12.23;8.80;;;;;;;17.52;80.75;101252.06;5101678;28;20049;-76
2021/07/16 01:20:47;;;;;;;13.23;8.32;;;;;;;17.52;81.08;101249.25;5085644;28;20039;-76
2021/07/16 01:23:33;;;;;;;9.35;6.90;;;;;;;17.52;80.15;101254.88;5079679;28;20039;-76
2021/07/16 01:26:18;;;;;;;10.02;6.75;;;;;;;17.54;80.72;101246.13;5088643;28;20114;-76
2021/07/16 01:29:04;;;;;;;10.30;6.78;;;;;;;17.52;80.53;101242.81;5098588;28;20043;-76
2021/07/16 01:31:50;;;;;;;9.05;6.13;;;;;;;17.52;79.95;101249.25;5116570;28;20069;-76
2021/07/16 01:34:36;;;;;;;15.25;9.45;;;;;;;17.53;81.66;101256.53;5101552;28;20111;-76
2021/07/16 01:37:22;;;;;;;11.02;8.18;;;;;;;17.54;81.36;101248.94;5080794;28;20399;-76
2021/07/16 01:40:12;;;;;;;10.30;7.68;;;;;;;17.52;81.09;101246.44;5099836;28;20028;-76
2021/07/16 01:42:57;;;;;;;14.00;7.65;;;;;;;17.53;81.04;101250.91;5093847;28;20120;-76
2021/07/16 01:45:43;;;;;;;11.80;8.57;;;;;;;17.51;81.11;101241.97;5106508;28;20110;-76
2021/07/16 01:48:30;;;;;;;11.93;8.30;;;;;;;17.53;81.55;101238.88;5112621;28;20699;-76
2021/07/16 01:51:16;;;;;;;13.25;8.35;;;;;;;17.54;81.01;101240.50;5107464;28;20035;-76
2021/07/16 01:54:01;;;;;;;12.02;8.20;;;;;;;17.49;81.31;101233.03;5102004;28;20039;-76
2021/07/16 01:56:47;;;;;;;14.15;8.52;;;;;;;17.48;81.51;101236.19;5086186;28;20096;-76
2021/07/16 01:59:33;;;;;;;12.10;8.32;;;;;;;17.47;81.47;101243.78;5078556;28;20063;-76
2021/07/16 02:02:19;;;;;;;15.30;10.98;;;;;;;17.47;82.25;101242.94;5113546;27;20063;-77
2021/07/16 02:05:05;;;;;;;16.33;11.65;;;;;;;17.45;83.04;101248.91;5104437;28;20039;-76
2021/07/16 02:07:52;;;;;;;12.93;9.52;;;;;;;17.44;83.18;101233.22;5112415;28;20039;-76
2021/07/16 02:10:37;;;;;;;12.57;8.20;;;;;;;17.42;82.10;101241.94;5108369;28;20043;-76
2021/07/16 02:13:24;;;;;;;11.65;8.65;;;;;;;17.45;82.09;101240.47;5067779;28;20656;-76
2021/07/16 02:16:10;;;;;;;14.57;11.23;;;;;;;17.43;82.35;101248.38;5099510;28;20031;-76
2021/07/16 02:18:55;;;;;;;12.57;8.73;;;;;;;17.42;81.91;101243.94;5098785;28;20074;-76
2021/07/16 02:21:41;;;;;;;15.77;11.90;;;;;;;17.35;84.07;101243.56;5086961;28;20556;-76
2021/07/16 02:24:27;;;;;;;18.23;12.50;;;;;;;17.29;84.32;101244.84;5088633;28;20701;-76
2021/07/16 02:27:13;;;;;;;15.48;10.95;;;;;;;17.28;84.59;101238.41;5113091;28;20038;-75
2021/07/16 02:29:58;;;;;;;12.38;8.30;;;;;;;17.29;82.65;101240.06;5094474;28;20042;-76
2021/07/16 02:32:46;;;;;;;16.02;10.55;;;;;;;17.29;82.70;101233.63;5116338;28;20051;-76
2021/07/16 02:35:32;;;;;;;12.48;8.75;;;;;;;17.22;83.13;101242.50;5090585;28;20039;-75
2021/07/16 02:38:17;;;;;;;13.65;9.18;;;;;;;17.20;82.20;101230.75;5099618;28;20055;-76
2021/07/16 02:41:03;;;;;;;13.20;9.68;;;;;;;17.15;82.65;101231.72;5098331;28;20538;-76
2021/07/16 02:43:49;;;;;;;13.07;8.93;;;;;;;17.18;82.41;101227.44;5102304;28;20036;-76
2021/07/16 02:46:35;;;;;;;13.85;9.55;;;;;;;17.15;82.45;101228.09;5091793;28;20111;-76
2021/07/16 02:49:21;;;;;;;17.35;10.35;;;;;;;17.12;81.95;101235.16;5091910;28;20044;-77
2021/07/16 02:52:07;;;;;;;12.68;9.48;;;;;;;17.08;82.47;101239.78;5082498;28;20051;-77
2021/07/16 02:54:53;;;;;;;12.57;8.90;;;;;;;17.04;82.04;101244.34;5084051;28;20168;-77
2021/07/16 02:57:38;;;;;;;12.57;8.55;;;;;;;16.99;82.02;101244.47;5094657;28;20081;-77
2021/07/16 03:00:28;;;;;;;11.73;8.27;;;;;;;16.95;82.00;101243.47;5082808;28;20495;-77
2021/07/16 03:03:14;;;;;;;10.27;8.10;;;;;;;16.95;82.01;101237.88;5093684;28;20665;-77
2021/07/16 03:05:59;;;;;;;13.00;7.00;;;;;;;16.93;81.68;101243.78;5096733;28;20024;-78
2021/07/16 03:08:46;;;;;;;10.82;7.25;;;;;;;16.84;81.22;101245.72;5098199;28;20476;-77
2021/07/16 03:11:31;;;;;;;9.60;6.53;;;;;;;16.82;81.59;101241.56;5090370;27;20040;-77
2021/07/16 03:14:17;;;;;;;8.93;6.35;;;;;;;16.80;81.48;101244.69;5089010;27;20043;-77
2021/07/16 03:17:04;;;;;;;9.50;6.90;;;;;;;16.75;81.31;101242.81;5076181;27;20482;-79
2021/07/16 03:19:50;;;;;;;9.60;5.85;;;;;;;16.69;81.35;101244.09;5102975;28;20069;-78
2021/07/16 03:22:35;;;;;;;6.72;5.28;;;;;;;16.62;80.95;101246.50;5112822;27;20041;-78
2021/07/16 03:25:22;;;;;;;8.02;6.00;;;;;;;16.58;81.20;101245.47;5095153;28;20055;-78
2021/07/16 03:28:08;;;;;;;8.63;6.18;;;;;;;16.54;81.24;101248.06;5096871;27;20568;-77
2021/07/16 03:30:54;;;;;;;8.98;5.93;;;;;;;16.51;80.97;101250.69;5098553;27;20110;-77
2021/07/16 03:33:40;;;;;;;8.50;6.45;;;;;;;16.49;81.24;101261.38;5099824;27;20092;-78
2021/07/16 03:36:26;;;;;;;7.95;6.38;;;;;;;16.46;81.24;101253.59;5093127;28;20118;-78
2021/07/16 03:39:12;;;;;;;8.82;6.93;;;;;;;16.42;81.27;101242.19;5079717;28;20039;-77
2021/07/16 03:41:57;;;;;;;8.10;6.90;;;;;;;16.40;81.23;101257.66;5062846;28;20077;-77
2021/07/16 03:44:43;;;;;;;12.25;7.28;;;;;;;16.39;81.86;101261.63;5070132;28;20127;-78
2021/07/16 03:47:29;;;;;;;10.07;7.53;;;;;;;16.39;82.37;101256.84;5080366;28;20036;-78
2021/07/16 03:50:16;;;;;;;11.50;7.43;;;;;;;16.37;81.59;101256.31;5071194;28;20043;-77
2021/07/16 03:53:02;;;;;;;10.45;8.05;;;;;;;16.35;81.53;101260.59;5055182;28;20032;-78
2021/07/16 03:55:48;;;;;;;13.20;8.80;;;;;;;16.37;82.10;101252.69;5049987;28;20031;-78
2021/07/16 03:58:34;;;;;;;10.52;6.97;;;;;;;16.39;82.07;101256.84;5069522;28;20055;-77
2021/07/16 04:01:19;;;;;;;10.77;7.25;;;;;;;16.37;81.86;101258.31;5062574;28;20032;-76
2021/07/16 04:04:05;;;;;;;13.15;8.32;;;;;;;16.35;82.32;101267.00;5050025;28;20040;-76
2021/07/16 04:06:55;;;;;;;17.45;12.35;;;;;;;16.35;81.64;101260.59;5069902;28;20095;-76
2021/07/16 04:09:40;;;;;;;14.05;9.98;;;;;;;16.33;81.99;101257.28;5058877;28;20496;-77
2021/07/16 04:12:26;;;;;;;12.40;8.75;;;;;;;16.30;81.38;101262.38;5062139;28;20620;-76
2021/07/16 04:15:12;;;;;;;12.82;8.13;;;;;;;16.27;81.20;101260.19;5068427;28;20090;-76
2021/07/16 04:18:01;;;;;;;12.55;8.43;;;;;;;16.25;81.96;101253.25;5087128;28;20028;-77
2021/07/16 04:20:47;;;;;;;14.02;7.70;;;;;;;16.23;81.70;101258.31;5067594;28;20039;-77
2021/07/16 04:23:32;;;;;;;12.13;7.45;;;;;;;16.21;81.54;101257.81;5092594;28;20032;-77
2021/07/16 04:26:18;;;;;;;10.77;7.25;;;;;;;16.15;81.35;101257.09;5077192;28;20042;-77
2021/07/16 04:29:04;;;;;;;9.75;7.18;;;;;;;16.16;81.75;101264.38;5067079;28;20123;-78
2021/07/16 04:31:50;;;;;;;11.10;7.70;;;;;;;16.13;81.90;101265.00;5090817;28;20067;-78
2021/07/16 04:34:37;;;;;;;10.48;7.63;;;;;;;16.08;81.52;101263.13;5076539;28;20028;-78
2021/07/16 04:37:22;;;;;;;11.05;8.05;;;;;;;16.05;81.44;101263.75;5076896;28;20465;-77
2021/07/16 04:40:10;;;;;;;10.50;7.75;;;;;;;16.04;81.74;101266.84;5060629;28;20439;-78
2021/07/16 04:42:56;;;;;;;9.55;7.18;;;;;;;16.01;81.52;101273.91;5064356;28;20123;-78
2021/07/16 04:45:42;;;;;;;9.50;7.32;;;;;;;16.02;81.68;101267.19;5070233;28;20135;-77
2021/07/16 04:48:28;;;;;;;10.77;6.78;;;;;;;15.99;81.85;101270.63;5085431;28;20036;-77
2021/07/16 04:51:30;;;;;;;9.38;7.45;;;;;;;15.99;82.17;101272.56;5074435;28;20122;-78
2021/07/16 04:54:16;;;;;;;13.02;7.60;;;;;;;15.99;82.23;101275.38;5091497;28;20040;-78
2021/07/16 04:57:02;;;;;;;9.90;7.18;;;;;;;15.98;82.61;101274.53;5075105;28;20066;-78
2021/07/16 04:59:50;;;;;;;11.15;7.32;;;;;;;16.03;83.67;101279.22;5089939;28;20031;-78
2021/07/16 05:02:35;;;;;;;9.68;6.35;;;;;;;16.06;83.11;101278.59;5076431;28;20086;-78
2021/07/16 05:05:21;;;;;;;10.77;7.65;;;;;;;16.12;84.52;101285.75;5093790;28;20090;-78
2021/07/16 05:08:07;;;;;;;13.18;8.85;;;;;;;16.19;85.41;101293.75;5072868;28;20124;-78
2021/07/16 05:10:53;;;;;;;18.60;13.00;;;;;;;16.22;88.43;101302.34;5075319;28;20033;-69
2021/07/16 05:13:39;;;;;;;23.80;15.43;;;;;;;16.24;88.76;101302.88;5075700;28;20499;-69
2021/07/16 05:16:25;;;;;;;20.65;15.23;;;;;;;16.26;89.26;101303.38;5078553;28;20028;-69
2021/07/16 05:19:11;;;;;;;17.75;12.90;;;;;;;16.31;87.30;101310.84;5091559;28;20365;-69
2021/07/16 05:21:57;;;;;;;21.55;15.70;;;;;;;16.36;87.12;101315.53;5088327;28;20068;-70
2021/07/16 05:24:43;;;;;;;20.50;14.82;;;;;;;16.38;86.84;101318.81;5070864;28;20495;-70
2021/07/16 05:27:29;;;;;;;17.92;14.07;;;;;;;16.41;86.84;101309.78;5077561;28;20454;-69
2021/07/16 05:30:15;;;;;;;24.70;17.17;;;;;;;16.38;88.27;101307.59;5090999;28;20040;-69
2021/07/16 05:33:01;;;;;;;22.67;16.45;;;;;;;16.40;88.52;101303.34;5067903;28;20044;-69
2021/07/16 05:35:47;;;;;;;22.10;14.65;;;;;;;16.42;87.29;101311.47;5070215;28;20040;-70
2021/07/16 05:38:33;;;;;;;17.00;13.60;;;;;;;16.45;86.51;101313.63;5054686;28;20070;-70
2021/07/16 05:41:19;;;;;;;16.52;12.93;;;;;;;16.48;86.14;101313.00;5073556;28;20028;-69
2021/07/16 05:44:05;;;;;;;17.92;13.43;;;;;;;16.52;86.84;101320.47;5056245;28;20424;-70
2021/07/16 05:46:51;;;;;;;25.52;20.13;;;;;;;16.48;90.15;101316.63;5063916;28;20044;-70
2021/07/16 05:49:37;;;;;;;27.05;20.35;;;;;;;16.51;90.01;101315.16;5094536;28;20114;-70
2021/07/16 05:52:24;;;;;;;21.73;16.38;;;;;;;16.50;87.77;101319.13;5056353;28;20047;-70
2021/07/16 05:55:10;;;;;;;27.45;18.48;;;;;;;16.50;90.51;101319.94;5067897;28;20071;-70
2021/07/16 05:57:56;;;;;;;19.73;13.82;;;;;;;16.56;86.94;101320.66;5082883;28;20036;-70
2021/07/16 06:00:42;;;;;;;17.67;13.73;;;;;;;16.64;88.03;101314.31;5066806;28;20024;-70
2021/07/16 06:03:28;;;;;;;20.90;16.13;;;;;;;16.70;89.27;101318.66;5047126;28;20446;-70
2021/07/16 06:06:14;;;;;;;19.95;15.00;;;;;;;16.79;89.11;101317.94;5049721;28;20567;-70
2021/07/16 06:08:59;;;;;;;20.13;13.95;;;;;;;16.85;88.47;101323.09;5053196;28;20040;-70
2021/07/16 06:11:45;;;;;;;20.83;15.95;;;;;;;16.99;89.47;101323.03;5046730;28;20037;-70
2021/07/16 06:14:31;;;;;;;17.90;14.68;;;;;;;17.10;88.87;101321.66;5048850;28;20529;-70
2021/07/16 06:17:17;;;;;;;14.23;10.88;;;;;;;17.23;85.41;101325.56;5061358;28;20051;-71
2021/07/16 06:20:04;;;;;;;18.30;13.40;;;;;;;17.37;85.46;101320.69;5061811;28;20503;-71
2021/07/16 06:22:50;;;;;;;23.48;14.35;;;;;;;17.52;85.77;101316.66;5042020;28;20166;-71
2021/07/16 06:25:36;;;;;;;21.55;13.80;;;;;;;17.67;86.05;101323.03;5047229;28;20064;-71
2021/07/16 06:28:22;;;;;;;19.85;13.75;;;;;;;17.77;86.10;101328.34;5064348;28;20028;-73
2021/07/16 06:31:07;;;;;;;15.38;11.13;;;;;;;17.94;84.74;101338.88;5054155;28;20124;-74
2021/07/16 06:33:53;;;;;;;18.98;12.38;;;;;;;18.11;84.26;101338.09;5042436;28;20040;-73
2021/07/16 06:36:39;;;;;;;15.00;11.52;;;;;;;18.30;83.31;101347.09;5047228;28;20043;-74
2021/07/16 06:39:25;;;;;;;18.95;14.70;;;;;;;18.43;85.28;101346.16;5073189;28;20060;-74
2021/07/16 06:42:11;;;;;;;16.73;12.75;;;;;;;18.70;84.68;101344.25;5086483;28;20029;-73
2021/07/16 06:44:57;;;;;;;21.35;13.43;;;;;;;18.92;83.81;101349.75;5076557;28;20040;-73
2021/07/16 06:47:42;;;;;;;14.55;9.88;;;;;;;19.17;82.79;101359.34;5084859;28;20437;-73
2021/07/16 06:50:28;;;;;;;13.50;9.07;;;;;;;19.36;79.88;101356.19;5107978;28;20097;-73
2021/07/16 06:53:14;;;;;;;13.52;9.50;;;;;;;19.56;79.39;101357.47;5073514;28;20301;-73
2021/07/16 06:56:00;;;;;;;12.45;9.90;;;;;;;19.75;78.87;101351.50;5082580;28;20028;-73
2021/07/16 06:58:45;;;;;;;15.02;10.75;;;;;;;19.92;78.58;101361.03;5066303;28;20043;-73
2021/07/16 07:01:31;;;;;;;17.23;10.65;;;;;;;20.05;78.13;101358.00;5079773;28;20067;-75
2021/07/16 07:04:17;;;;;;;14.60;9.65;;;;;;;20.17;78.02;101357.31;5086452;28;20118;-71
2021/07/16 07:07:04;;;;;;;19.83;10.93;;;;;;;20.26;78.45;101365.75;5112214;28;20045;-73
2021/07/16 07:09:50;;;;;;;17.73;11.10;;;;;;;20.35;77.90;101357.22;5111469;27;20031;-73
2021/07/16 07:12:36;;;;;;;18.42;11.82;;;;;;;20.36;78.28;101364.50;5111944;28;20040;-74
2021/07/16 07:15:22;;;;;;;14.73;11.85;;;;;;;20.36;77.19;101365.34;5102996;28;20425;-74
2021/07/16 07:18:08;;;;;;;17.23;10.80;;;;;;;20.52;76.62;101365.59;5112302;28;20043;-73
2021/07/16 07:20:54;;;;;;;14.35;9.88;;;;;;;20.47;76.73;101368.59;5116905;27;20020;-73
2021/07/16 07:23:40;;;;;;;18.48;10.32;;;;;;;20.36;75.93;101376.63;5113398;28;20096;-73
2021/07/16 07:26:30;;;;;;;14.52;9.13;;;;;;;20.49;76.03;101377.56;5106473;28;20035;-73
2021/07/16 07:29:16;;;;;;;16.20;10.77;;;;;;;20.35;76.36;101376.97;5110916;28;20127;-73
2021/07/16 07:32:03;;;;;;;14.80;10.25;;;;;;;20.49;77.14;101375.56;5111004;28;20032;-73
2021/07/16 07:34:49;;;;;;;14.82;9.50;;;;;;;20.59;76.84;101367.88;5067376;28;20036;-73
2021/07/16 07:37:34;;;;;;;13.32;8.63;;;;;;;20.82;75.79;101377.72;5068281;28;20042;-73
2021/07/16 07:40:20;;;;;;;13.23;7.45;;;;;;;21.00;75.33;101374.75;5078223;28;20074;-73
2021/07/16 07:43:06;;;;;;;12.77;8.25;;;;;;;21.15;74.23;101374.97;5114251;28;20032;-73
2021/07/16 07:45:52;;;;;;;13.13;8.30;;;;;;;21.35;72.47;101380.94;5081106;28;20505;-73
2021/07/16 07:48:38;;;;;;;13.13;7.38;;;;;;;21.63;73.53;101382.03;5096475;28;20061;-74
2021/07/16 07:51:23;;;;;;;10.85;6.78;;;;;;;21.96;72.18;101369.88;5114134;27;20036;-73
2021/07/16 07:54:09;;;;;;;17.15;8.13;;;;;;;22.17;69.52;101372.59;5096205;28;20035;-74
2021/07/16 07:56:55;;;;;;;12.10;6.63;;;;;;;22.34;69.15;101374.38;5093890;28;20036;-73
2021/07/16 07:59:43;;;;;;;9.23;6.25;;;;;;;22.37;68.43;101367.19;5102506;28;20089;-75
2021/07/16 08:02:28;;;;;;;14.68;6.13;;;;;;;22.31;66.89;101377.94;5106471;28;20042;-74
2021/07/16 08:05:14;;;;;;;9.80;5.43;;;;;;;22.37;67.24;101379.38;5111988;28;20194;-74
2021/07/16 08:08:00;;;;;;;8.38;5.82;;;;;;;22.11;67.46;101388.13;5102834;28;20040;-74
2021/07/16 08:10:46;;;;;;;14.40;5.90;;;;;;;22.15;69.01;101380.63;5089924;28;20032;-73
2021/07/16 08:13:32;;;;;;;10.25;5.38;;;;;;;22.33;66.41;101381.25;5095031;28;20040;-78
2021/07/16 08:16:17;;;;;;;8.18;4.90;;;;;;;22.39;64.46;101377.00;5097636;28;20050;-74
2021/07/16 08:19:03;;;;;;;10.57;5.07;;;;;;;22.52;64.12;101381.47;5104912;28;20143;-75
2021/07/16 08:21:54;;;;;;;8.52;4.47;;;;;;;22.51;62.76;101378.97;5096049;28;20031;-74
2021/07/16 08:24:40;;;;;;;8.40;5.03;;;;;;;22.68;64.22;101377.94;5104979;28;20698;-75
2021/07/16 08:27:26;;;;;;;10.75;4.47;;;;;;;22.92;63.80;101377.06;5083278;28;20031;-75
2021/07/16 08:30:12;;;;;;;10.68;4.63;;;;;;;23.24;64.75;101382.91;5110987;28;20027;-75
2021/07/16 08:32:57;;;;;;;10.85;4.28;;;;;;;23.49;61.76;101378.78;5112667;27;20060;-75
2021/07/16 08:35:43;;;;;;;7.10;3.70;;;;;;;23.72;59.62;101384.72;5109367;28;20051;-73
2021/07/16 08:38:29;;;;;;;6.55;3.60;;;;;;;24.05;58.44;101383.59;5106682;28;20027;-80
2021/07/16 08:41:15;;;;;;;6.28;3.20;;;;;;;24.29;56.51;101380.59;5084003;28;20082;-76
2021/07/16 08:44:01;;;;;;;5.97;3.53;;;;;;;24.40;55.88;101377.16;5082239;28;20105;-79
2021/07/16 08:46:47;;;;;;;6.95;3.55;;;;;;;24.70;56.66;101383.19;5082770;28;20034;-79
2021/07/16 08:49:33;;;;;;;7.10;3.42;;;;;;;24.81;56.62;101383.47;5111312;28;20036;-79
2021/07/16 08:52:20;;;;;;;4.78;3.50;;;;;;;24.87;54.84;101377.09;5080226;28;20036;-78
2021/07/16 08:55:06;;;;;;;7.57;4.22;;;;;;;24.43;56.33;101382.97;5083464;28;20038;-79
2021/07/16 08:57:52;;;;;;;9.43;4.05;;;;;;;24.47;56.56;101380.22;5088482;28;20116;-79
2021/07/16 09:00:38;;;;;;;10.82;4.28;;;;;;;24.48;56.46;101379.84;5079442;28;20479;-78
2021/07/16 09:03:24;;;;;;;6.65;3.58;;;;;;;24.42;57.92;101371.94;5081237;28;20122;-73
2021/07/16 09:06:10;;;;;;;6.22;3.50;;;;;;;24.43;54.08;101370.75;5108415;28;20494;-79
2021/07/16 09:08:56;;;;;;;7.93;3.90;;;;;;;24.35;55.33;101369.78;5079747;28;20516;-78
2021/07/16 09:11:43;;;;;;;7.65;3.65;;;;;;;24.38;57.38;101362.53;5080381;28;20032;-78
2021/07/16 09:14:30;;;;;;;8.20;3.50;;;;;;;24.63;56.66;101363.16;5083238;28;20091;-79
2021/07/16 09:17:16;;;;;;;6.25;3.47;;;;;;;24.81;56.23;101363.56;5099447;28;20040;-79
2021/07/16 09:20:03;;;;;;;8.43;3.78;;;;;;;24.93;54.34;101371.94;5096724;28;20503;-79
2021/07/16 09:23:07;;;;;;;4.82;3.67;;;;;;;24.90;54.34;101367.84;5088061;28;20032;-78
2021/07/16 09:26:02;;;;;;;8.23;3.38;;;;;;;25.11;54.25;101361.81;5080144;28;20046;-79
2021/07/16 09:28:48;;;;;;;6.55;3.33;;;;;;;25.04;54.04;101367.31;5096884;28;20059;-79
2021/07/16 09:31:38;;;;;;;5.50;3.15;;;;;;;25.25;53.05;101366.19;5089475;28;20023;-79
2021/07/16 09:34:26;;;;;;;7.93;3.30;;;;;;;24.91;53.08;101366.66;5099957;28;20044;-81
2021/07/16 09:37:12;;;;;;;7.47;3.58;;;;;;;24.89;51.93;101371.06;5116199;27;20476;-79
2021/07/16 09:39:58;;;;;;;7.20;3.78;;;;;;;24.76;52.24;101364.66;5109907;28;20543;-78
2021/07/16 09:42:44;;;;;;;7.18;3.53;;;;;;;24.82;53.87;101353.84;5087877;28;20114;-78
2021/07/16 09:45:30;;;;;;;7.57;3.83;;;;;;;24.87;52.64;101365.75;5083557;28;20035;-79
2021/07/16 09:48:29;;;;;;;7.53;3.30;;;;;;;24.77;52.69;101371.16;5079503;28;20043;-77
2021/07/16 09:51:20;;;;;;;7.38;3.65;;;;;;;25.12;52.15;101374.00;5109038;28;20535;-79
2021/07/16 09:54:06;;;;;;;6.18;3.70;;;;;;;24.98;52.18;101365.97;5093206;28;20039;-79
2021/07/16 09:56:52;;;;;;;6.40;3.60;;;;;;;25.18;51.70;101367.69;5101390;28;20088;-78
2021/07/16 09:59:37;;;;;;;6.78;3.45;;;;;;;25.17;51.42;101376.59;5079989;28;20060;-79
2021/07/16 10:02:23;;;;;;;5.78;3.67;;;;;;;25.13;51.32;101370.81;5101649;28;20134;-79
2021/07/16 10:05:09;;;;;;;7.03;3.55;;;;;;;25.09;50.62;101372.72;5087360;28;20039;-70
2021/07/16 10:07:55;;;;;;;10.77;4.07;;;;;;;25.18;51.74;101378.22;5090221;28;20611;-70
2021/07/16 10:10:41;;;;;;;7.28;3.70;;;;;;;25.19;52.57;101380.69;5062556;28;20036;-71
2021/07/16 10:13:27;;;;;;;8.05;3.75;;;;;;;25.33;53.41;101363.13;5084573;27;20051;-71
2021/07/16 10:16:13;;;;;;;4.95;3.47;;;;;;;25.19;50.97;101368.50;5077240;28;20039;-70
2021/07/16 10:18:58;;;;;;;5.53;3.22;;;;;;;25.23;51.89;101369.41;5082213;27;20036;-70
2021/07/16 10:21:45;;;;;;;7.97;3.80;;;;;;;25.41;51.57;101355.56;5116499;28;20036;-71
2021/07/16 10:24:34;;;;;;;8.15;3.88;;;;;;;25.26;52.76;101371.50;5101224;28;20036;-71
2021/07/16 10:27:20;;;;;;;5.55;3.70;;;;;;;25.57;53.50;101358.31;5091111;28;20032;-70
2021/07/16 10:30:10;;;;;;;10.55;3.80;;;;;;;25.92;52.83;101361.03;5099457;28;20043;-71
2021/07/16 10:32:56;;;;;;;6.38;3.50;;;;;;;26.25;50.62;101346.16;5088540;28;20032;-71
2021/07/16 10:35:42;;;;;;;5.05;3.08;;;;;;;26.40;49.16;101352.09;5113478;27;20063;-71
2021/07/16 10:38:34;;;;;;;7.50;3.75;;;;;;;26.27;48.80;101357.16;5101175;28;20032;-71
2021/07/16 10:41:28;;;;;;;5.15;3.20;;;;;;;26.33;48.03;101352.81;5108042;27;20042;-70
2021/07/16 10:44:15;;;;;;;5.30;3.47;;;;;;;26.50;49.44;101363.69;5083506;28;20067;-70
2021/07/16 10:47:01;;;;;;;6.88;3.72;;;;;;;26.46;48.64;101365.59;5086317;28;20128;-71
2021/07/16 10:49:53;;;;;;;7.05;3.40;;;;;;;26.52;49.04;101357.59;5070142;28;20048;-70
2021/07/16 10:52:49;;;;;;;8.73;3.38;;;;;;;26.48;48.22;101366.06;5084896;28;20031;-70
2021/07/16 10:55:35;;;;;;;6.35;3.53;;;;;;;26.32;48.72;101362.53;5082116;28;20050;-71
2021/07/16 10:58:25;;;;;;;7.93;3.90;;;;;;;26.42;48.43;101366.78;5097114;28;20031;-71
2021/07/16 11:01:12;;;;;;;8.15;3.67;;;;;;;26.36;47.19;101374.81;5069648;28;20615;-71
2021/07/16 11:03:58;;;;;;;6.93;3.83;;;;;;;26.23;48.31;101356.28;5070725;28;20039;-70
2021/07/16 11:06:51;;;;;;;7.35;3.65;;;;;;;26.31;47.26;101369.44;5079970;28;20039;-71
2021/07/16 11:09:40;;;;;;;7.18;3.50;;;;;;;26.52;48.32;101364.13;5071454;28;20039;-70
2021/07/16 11:12:33;;;;;;;8.25;3.88;;;;;;;26.88;49.52;101360.97;5097904;28;20042;-71
2021/07/16 11:15:28;;;;;;;6.75;3.60;;;;;;;26.77;46.14;101365.69;5060785;28;20048;-70
2021/07/16 11:18:34;;;;;;;6.63;3.70;;;;;;;26.69;47.09;101364.75;5075377;28;20028;-70
2021/07/16 11:21:41;;;;;;;9.55;3.70;;;;;;;27.06;46.59;101346.97;5088987;28;20027;-71
2021/07/16 11:24:31;;;;;;;7.28;3.55;;;;;;;27.03;46.56;101362.84;5088772;28;20400;-70
2021/07/16 11:27:18;;;;;;;6.80;3.75;;;;;;;26.76;47.38;101369.75;5070621;28;20031;-70
2021/07/16 11:30:04;;;;;;;9.07;3.92;;;;;;;27.09;47.00;101352.72;5078868;28;20101;-70
2021/07/16 11:32:50;;;;;;;7.45;3.70;;;;;;;27.13;48.43;101345.03;5066497;28;20732;-71
2021/07/16 11:35:37;;;;;;;6.38;3.40;;;;;;;27.32;47.19;101355.47;5083344;28;20046;-71
2021/07/16 11:38:22;;;;;;;4.82;3.33;;;;;;;27.59;47.11;101356.22;5076053;28;20105;-70
2021/07/16 11:41:09;;;;;;;7.07;3.70;;;;;;;27.32;46.23;101358.34;5076210;28;20032;-70
2021/07/16 11:43:54;;;;;;;5.28;3.40;;;;;;;27.30;46.44;101352.22;5082680;28;20035;-70
2021/07/16 11:46:40;;;;;;;6.63;3.55;;;;;;;27.30;47.71;101348.53;5069490;28;20035;-71
2021/07/16 11:49:27;;;;;;;6.18;3.50;;;;;;;27.38;48.02;101348.22;5060198;28;20048;-71
2021/07/16 11:52:18;;;;;;;10.20;3.88;;;;;;;27.66;46.94;101344.03;5077420;28;20047;-68
2021/07/16 11:55:13;;;;;;;6.18;3.65;;;;;;;27.75;45.24;101341.72;5112820;28;20038;-69
2021/07/16 11:58:03;;;;;;;6.05;3.60;;;;;;;28.01;45.82;101337.09;5110009;28;20039;-68
2021/07/16 12:00:49;;;;;;;7.90;3.33;;;;;;;27.84;43.95;101333.69;5109687;28;20039;-68
2021/07/16 12:03:34;;;;;;;5.72;3.53;;;;;;;27.46;43.88;101342.59;5110256;28;20042;-68
2021/07/16 12:06:20;;;;;;;6.90;3.40;;;;;;;27.82;44.28;101330.38;5111343;28;20038;-68
2021/07/16 12:09:06;;;;;;;6.85;3.50;;;;;;;27.87;44.54;101325.53;5109728;28;20070;-68
2021/07/16 12:12:06;;;;;;;6.28;3.00;;;;;;;27.64;44.71;101320.81;5085354;28;20122;-68
2021/07/16 12:14:56;;;;;;;6.28;3.60;;;;;;;27.53;45.41;101319.88;5099845;28;20513;-68
2021/07/16 12:17:52;;;;;;;7.32;3.47;;;;;;;27.26;44.21;101331.38;5083141;28;20040;-69
2021/07/16 12:20:44;;;;;;;9.02;3.90;;;;;;;27.51;47.86;101325.16;5082409;28;20084;-68
2021/07/16 12:23:30;;;;;;;9.45;3.65;;;;;;;27.12;46.60;101314.88;5069029;28;20059;-68
2021/07/16 12:26:18;;;;;;;5.65;3.28;;;;;;;27.24;47.23;101321.56;5082779;28;20483;-68
2021/07/16 12:29:06;;;;;;;6.75;3.55;;;;;;;27.16;46.44;101320.66;5083310;28;20602;-68
2021/07/16 12:31:51;;;;;;;6.57;3.70;;;;;;;27.13;46.96;101321.41;5096090;28;20043;-68
2021/07/16 12:34:44;;;;;;;6.65;3.33;;;;;;;27.28;44.95;101323.25;5084625;28;20028;-68
2021/07/16 12:37:37;;;;;;;7.60;3.53;;;;;;;27.24;44.67;101313.00;5064646;28;20028;-68
2021/07/16 12:40:22;;;;;;;5.60;3.40;;;;;;;26.98;44.86;101319.59;5083742;28;20089;-68
2021/07/16 12:43:13;;;;;;;5.38;3.28;;;;;;;27.03;43.19;101316.41;5078499;28;20110;-68
2021/07/16 12:45:59;;;;;;;5.65;3.40;;;;;;;26.91;44.66;101312.59;5075957;28;20127;-68
2021/07/16 12:48:46;;;;;;;8.57;3.50;;;;;;;26.70;45.48;101315.13;5076318;28;20044;-68